sensor_id;sensor_type;location;lat;lon;timestamp;P1;durP1;ratioP1;P2;durP2;ratioP2
27365;SDS011;14837;57.148;-2.144;2023-07-08T00:00:35;4.65;;;3.00;;
27365;SDS011;14837;57.148;-2.144;2023-07-08T00:03:01;4.82;;;3.20;;
27365;SDS011;14837;57.148;-2.144;2023-07-08T00:05:28;3.40;;;2.20;;
27365;SDS011;14837;57.148;-2.144;2023-07-08T00:07:55;6.60;;;3.22;;
27365;SDS011;14837;57.148;-2.144;2023-07-08T00:10:22;4.53;;;3.47;;
27365;SDS011;14837;57.148;-2.144;2023-07-08T00:12:51;3.75;;;2.55;;
27365;SDS011;14837;57.148;-2.144;2023-07-08T00:15:18;5.30;;;2.75;;
27365;SDS011;14837;57.148;-2.144;2023-07-08T00:17:46;3.83;;;2.58;;
27365;SDS011;14837;57.148;-2.144;2023-07-08T00:20:13;3.50;;;2.72;;
27365;SDS011;14837;57.148;-2.144;2023-07-08T00:22:40;3.03;;;2.67;;
27365;SDS011;14837;57.148;-2.144;2023-07-08T00:25:07;6.00;;;2.92;;
27365;SDS011;14837;57.148;-2.144;2023-07-08T00:27:34;3.58;;;2.70;;
27365;SDS011;14837;57.148;-2.144;2023-07-08T00:30:01;5.30;;;3.08;;
27365;SDS011;14837;57.148;-2.144;2023-07-08T00:32:27;5.28;;;3.10;;
27365;SDS011;14837;57.148;-2.144;2023-07-08T00:34:54;3.80;;;2.80;;
27365;SDS011;14837;57.148;-2.144;2023-07-08T00:37:21;5.50;;;2.95;;
27365;SDS011;14837;57.148;-2.144;2023-07-08T00:39:47;5.15;;;3.72;;
27365;SDS011;14837;57.148;-2.144;2023-07-08T00:42:18;5.63;;;3.88;;
27365;SDS011;14837;57.148;-2.144;2023-07-08T00:44:44;3.65;;;2.97;;
27365;SDS011;14837;57.148;-2.144;2023-07-08T00:47:12;4.03;;;3.50;;
27365;SDS011;14837;57.148;-2.144;2023-07-08T00:49:41;6.85;;;3.95;;
27365;SDS011;14837;57.148;-2.144;2023-07-08T00:54:45;9.57;;;3.30;;
27365;SDS011;14837;57.148;-2.144;2023-07-08T00:57:12;7.18;;;3.13;;
27365;SDS011;14837;57.148;-2.144;2023-07-08T00:59:41;4.28;;;2.70;;
27365;SDS011;14837;57.148;-2.144;2023-07-08T01:02:09;9.50;;;4.88;;
27365;SDS011;14837;57.148;-2.144;2023-07-08T01:04:39;6.10;;;3.42;;
27365;SDS011;14837;57.148;-2.144;2023-07-08T01:07:08;5.45;;;3.33;;
27365;SDS011;14837;57.148;-2.144;2023-07-08T01:09:40;5.60;;;3.50;;
27365;SDS011;14837;57.148;-2.144;2023-07-08T01:12:09;6.72;;;3.53;;
27365;SDS011;14837;57.148;-2.144;2023-07-08T01:14:37;5.80;;;3.53;;
27365;SDS011;14837;57.148;-2.144;2023-07-08T01:17:05;3.80;;;3.03;;
27365;SDS011;14837;57.148;-2.144;2023-07-08T01:19:31;5.93;;;3.22;;
27365;SDS011;14837;57.148;-2.144;2023-07-08T01:22:00;5.22;;;3.60;;
27365;SDS011;14837;57.148;-2.144;2023-07-08T01:24:27;3.67;;;2.58;;
27365;SDS011;14837;57.148;-2.144;2023-07-08T01:26:55;3.92;;;2.72;;
27365;SDS011;14837;57.148;-2.144;2023-07-08T01:29:22;6.70;;;3.45;;
27365;SDS011;14837;57.148;-2.144;2023-07-08T01:31:48;5.93;;;2.78;;
27365;SDS011;14837;57.148;-2.144;2023-07-08T01:34:15;7.20;;;3.05;;
27365;SDS011;14837;57.148;-2.144;2023-07-08T01:36:44;4.40;;;3.10;;
27365;SDS011;14837;57.148;-2.144;2023-07-08T01:39:12;5.60;;;3.20;;
27365;SDS011;14837;57.148;-2.144;2023-07-08T01:41:40;5.90;;;3.38;;
27365;SDS011;14837;57.148;-2.144;2023-07-08T01:44:18;7.82;;;3.60;;
27365;SDS011;14837;57.148;-2.144;2023-07-08T01:46:45;5.03;;;2.92;;
27365;SDS011;14837;57.148;-2.144;2023-07-08T01:49:11;8.55;;;3.00;;
27365;SDS011;14837;57.148;-2.144;2023-07-08T01:51:38;4.82;;;3.03;;
27365;SDS011;14837;57.148;-2.144;2023-07-08T01:54:05;3.40;;;2.88;;
27365;SDS011;14837;57.148;-2.144;2023-07-08T01:56:31;4.57;;;2.60;;
27365;SDS011;14837;57.148;-2.144;2023-07-08T01:58:58;4.28;;;2.95;;
27365;SDS011;14837;57.148;-2.144;2023-07-08T02:01:24;5.35;;;3.88;;
27365;SDS011;14837;57.148;-2.144;2023-07-08T02:03:51;6.80;;;3.40;;
27365;SDS011;14837;57.148;-2.144;2023-07-08T02:06:17;3.83;;;3.33;;
27365;SDS011;14837;57.148;-2.144;2023-07-08T02:08:45;5.43;;;3.13;;
27365;SDS011;14837;57.148;-2.144;2023-07-08T02:11:12;5.07;;;3.28;;
27365;SDS011;14837;57.148;-2.144;2023-07-08T02:13:38;3.47;;;3.17;;
27365;SDS011;14837;57.148;-2.144;2023-07-08T02:16:06;5.07;;;3.00;;
27365;SDS011;14837;57.148;-2.144;2023-07-08T02:18:32;3.92;;;2.90;;
27365;SDS011;14837;57.148;-2.144;2023-07-08T02:20:59;4.72;;;3.10;;
27365;SDS011;14837;57.148;-2.144;2023-07-08T02:23:26;3.25;;;2.85;;
27365;SDS011;14837;57.148;-2.144;2023-07-08T02:25:53;4.25;;;3.20;;
27365;SDS011;14837;57.148;-2.144;2023-07-08T02:28:20;4.45;;;3.70;;
27365;SDS011;14837;57.148;-2.144;2023-07-08T02:30:47;7.15;;;3.97;;
27365;SDS011;14837;57.148;-2.144;2023-07-08T02:33:13;6.55;;;3.22;;
27365;SDS011;14837;57.148;-2.144;2023-07-08T02:35:41;8.10;;;4.25;;
27365;SDS011;14837;57.148;-2.144;2023-07-08T02:38:07;4.25;;;3.20;;
27365;SDS011;14837;57.148;-2.144;2023-07-08T02:40:34;5.60;;;3.80;;
27365;SDS011;14837;57.148;-2.144;2023-07-08T02:43:00;6.00;;;3.25;;
27365;SDS011;14837;57.148;-2.144;2023-07-08T02:45:27;5.53;;;2.85;;
27365;SDS011;14837;57.148;-2.144;2023-07-08T02:47:53;7.65;;;4.32;;
27365;SDS011;14837;57.148;-2.144;2023-07-08T02:50:20;5.97;;;3.35;;
27365;SDS011;14837;57.148;-2.144;2023-07-08T02:52:46;4.03;;;3.20;;
27365;SDS011;14837;57.148;-2.144;2023-07-08T02:55:13;4.13;;;3.70;;
27365;SDS011;14837;57.148;-2.144;2023-07-08T02:57:40;5.05;;;3.78;;
27365;SDS011;14837;57.148;-2.144;2023-07-08T03:00:06;4.13;;;3.45;;
27365;SDS011;14837;57.148;-2.144;2023-07-08T03:02:33;3.35;;;2.88;;
27365;SDS011;14837;57.148;-2.144;2023-07-08T03:05:00;5.00;;;3.60;;
27365;SDS011;14837;57.148;-2.144;2023-07-08T03:07:27;5.18;;;3.72;;
27365;SDS011;14837;57.148;-2.144;2023-07-08T03:09:54;7.68;;;3.75;;
27365;SDS011;14837;57.148;-2.144;2023-07-08T03:12:20;6.72;;;4.15;;
27365;SDS011;14837;57.148;-2.144;2023-07-08T03:14:47;6.13;;;4.22;;
27365;SDS011;14837;57.148;-2.144;2023-07-08T03:17:13;9.13;;;4.32;;
27365;SDS011;14837;57.148;-2.144;2023-07-08T03:19:40;7.20;;;4.55;;
27365;SDS011;14837;57.148;-2.144;2023-07-08T03:22:07;5.15;;;4.45;;
27365;SDS011;14837;57.148;-2.144;2023-07-08T03:24:34;6.43;;;4.15;;
27365;SDS011;14837;57.148;-2.144;2023-07-08T03:27:00;5.10;;;3.90;;
27365;SDS011;14837;57.148;-2.144;2023-07-08T03:29:31;5.50;;;4.95;;
27365;SDS011;14837;57.148;-2.144;2023-07-08T03:31:58;5.32;;;4.10;;
27365;SDS011;14837;57.148;-2.144;2023-07-08T03:34:24;7.47;;;4.32;;
27365;SDS011;14837;57.148;-2.144;2023-07-08T03:36:51;6.95;;;4.50;;
27365;SDS011;14837;57.148;-2.144;2023-07-08T03:39:20;8.18;;;5.45;;
27365;SDS011;14837;57.148;-2.144;2023-07-08T03:41:48;5.70;;;4.53;;
27365;SDS011;14837;57.148;-2.144;2023-07-08T03:44:15;6.38;;;5.05;;
27365;SDS011;14837;57.148;-2.144;2023-07-08T03:46:43;8.52;;;5.07;;
27365;SDS011;14837;57.148;-2.144;2023-07-08T03:49:10;9.95;;;5.88;;
27365;SDS011;14837;57.148;-2.144;2023-07-08T03:51:38;5.57;;;4.57;;
27365;SDS011;14837;57.148;-2.144;2023-07-08T03:54:05;6.50;;;4.78;;
27365;SDS011;14837;57.148;-2.144;2023-07-08T03:56:32;7.43;;;4.55;;
27365;SDS011;14837;57.148;-2.144;2023-07-08T03:58:59;6.10;;;4.90;;
27365;SDS011;14837;57.148;-2.144;2023-07-08T04:01:26;6.13;;;5.53;;
27365;SDS011;14837;57.148;-2.144;2023-07-08T04:03:54;9.65;;;5.93;;
27365;SDS011;14837;57.148;-2.144;2023-07-08T04:06:21;6.35;;;4.45;;
27365;SDS011;14837;57.148;-2.144;2023-07-08T04:08:48;5.45;;;4.57;;
27365;SDS011;14837;57.148;-2.144;2023-07-08T04:11:16;7.53;;;4.32;;
27365;SDS011;14837;57.148;-2.144;2023-07-08T04:13:42;6.25;;;4.75;;
27365;SDS011;14837;57.148;-2.144;2023-07-08T04:16:19;6.95;;;6.03;;
27365;SDS011;14837;57.148;-2.144;2023-07-08T04:18:47;6.75;;;5.18;;
27365;SDS011;14837;57.148;-2.144;2023-07-08T04:21:17;7.55;;;4.53;;
27365;SDS011;14837;57.148;-2.144;2023-07-08T04:23:47;9.23;;;5.10;;
27365;SDS011;14837;57.148;-2.144;2023-07-08T04:26:13;6.75;;;5.40;;
27365;SDS011;14837;57.148;-2.144;2023-07-08T04:28:41;5.30;;;4.80;;
27365;SDS011;14837;57.148;-2.144;2023-07-08T04:31:08;5.47;;;4.65;;
27365;SDS011;14837;57.148;-2.144;2023-07-08T04:33:34;5.65;;;4.40;;
27365;SDS011;14837;57.148;-2.144;2023-07-08T04:36:01;9.35;;;4.50;;
27365;SDS011;14837;57.148;-2.144;2023-07-08T04:38:27;7.03;;;4.72;;
27365;SDS011;14837;57.148;-2.144;2023-07-08T04:40:54;6.30;;;4.57;;
27365;SDS011;14837;57.148;-2.144;2023-07-08T04:43:21;7.43;;;4.72;;
27365;SDS011;14837;57.148;-2.144;2023-07-08T04:45:48;5.07;;;4.57;;
27365;SDS011;14837;57.148;-2.144;2023-07-08T04:48:17;5.20;;;4.30;;
27365;SDS011;14837;57.148;-2.144;2023-07-08T04:50:48;4.82;;;3.78;;
27365;SDS011;14837;57.148;-2.144;2023-07-08T04:53:15;5.78;;;4.90;;
27365;SDS011;14837;57.148;-2.144;2023-07-08T04:55:42;6.40;;;4.47;;
27365;SDS011;14837;57.148;-2.144;2023-07-08T04:58:10;8.52;;;5.78;;
27365;SDS011;14837;57.148;-2.144;2023-07-08T05:00:36;5.20;;;4.50;;
27365;SDS011;14837;57.148;-2.144;2023-07-08T05:03:03;7.75;;;5.35;;
27365;SDS011;14837;57.148;-2.144;2023-07-08T05:05:30;8.63;;;5.32;;
27365;SDS011;14837;57.148;-2.144;2023-07-08T05:07:56;9.68;;;5.40;;
27365;SDS011;14837;57.148;-2.144;2023-07-08T05:10:23;8.25;;;5.30;;
27365;SDS011;14837;57.148;-2.144;2023-07-08T05:12:50;9.00;;;4.60;;
27365;SDS011;14837;57.148;-2.144;2023-07-08T05:15:16;9.07;;;5.13;;
27365;SDS011;14837;57.148;-2.144;2023-07-08T05:17:43;6.90;;;4.93;;
27365;SDS011;14837;57.148;-2.144;2023-07-08T05:20:11;10.80;;;5.10;;
27365;SDS011;14837;57.148;-2.144;2023-07-08T05:22:38;4.80;;;4.03;;
27365;SDS011;14837;57.148;-2.144;2023-07-08T05:25:05;8.52;;;4.78;;
27365;SDS011;14837;57.148;-2.144;2023-07-08T05:27:32;5.35;;;4.50;;
27365;SDS011;14837;57.148;-2.144;2023-07-08T05:30:02;6.75;;;4.90;;
27365;SDS011;14837;57.148;-2.144;2023-07-08T05:32:28;7.45;;;4.53;;
27365;SDS011;14837;57.148;-2.144;2023-07-08T05:34:55;6.30;;;4.50;;
27365;SDS011;14837;57.148;-2.144;2023-07-08T05:37:22;7.60;;;4.20;;
27365;SDS011;14837;57.148;-2.144;2023-07-08T05:39:52;4.85;;;3.88;;
27365;SDS011;14837;57.148;-2.144;2023-07-08T05:42:21;8.50;;;4.45;;
27365;SDS011;14837;57.148;-2.144;2023-07-08T05:44:48;5.95;;;3.95;;
27365;SDS011;14837;57.148;-2.144;2023-07-08T05:47:15;6.70;;;4.47;;
27365;SDS011;14837;57.148;-2.144;2023-07-08T05:49:41;5.65;;;4.03;;
27365;SDS011;14837;57.148;-2.144;2023-07-08T05:52:08;4.60;;;3.75;;
27365;SDS011;14837;57.148;-2.144;2023-07-08T05:54:37;7.55;;;4.82;;
27365;SDS011;14837;57.148;-2.144;2023-07-08T05:57:08;7.50;;;3.53;;
27365;SDS011;14837;57.148;-2.144;2023-07-08T05:59:36;5.43;;;3.88;;
27365;SDS011;14837;57.148;-2.144;2023-07-08T06:02:03;4.78;;;3.78;;
27365;SDS011;14837;57.148;-2.144;2023-07-08T06:04:29;6.25;;;4.18;;
27365;SDS011;14837;57.148;-2.144;2023-07-08T06:06:57;5.90;;;3.67;;
27365;SDS011;14837;57.148;-2.144;2023-07-08T06:09:24;4.20;;;3.45;;
27365;SDS011;14837;57.148;-2.144;2023-07-08T06:11:51;5.10;;;3.28;;
27365;SDS011;14837;57.148;-2.144;2023-07-08T06:14:17;4.38;;;3.30;;
27365;SDS011;14837;57.148;-2.144;2023-07-08T06:16:44;4.57;;;3.88;;
27365;SDS011;14837;57.148;-2.144;2023-07-08T06:19:12;6.15;;;3.58;;
27365;SDS011;14837;57.148;-2.144;2023-07-08T06:21:41;5.15;;;3.13;;
27365;SDS011;14837;57.148;-2.144;2023-07-08T06:24:08;7.03;;;3.75;;
27365;SDS011;14837;57.148;-2.144;2023-07-08T06:26:35;4.90;;;4.40;;
27365;SDS011;14837;57.148;-2.144;2023-07-08T06:29:02;4.78;;;3.47;;
27365;SDS011;14837;57.148;-2.144;2023-07-08T06:31:28;8.55;;;4.03;;
27365;SDS011;14837;57.148;-2.144;2023-07-08T06:33:55;4.05;;;3.40;;
27365;SDS011;14837;57.148;-2.144;2023-07-08T06:36:22;5.03;;;3.42;;
27365;SDS011;14837;57.148;-2.144;2023-07-08T06:38:49;3.92;;;3.20;;
27365;SDS011;14837;57.148;-2.144;2023-07-08T06:41:15;5.00;;;3.70;;
27365;SDS011;14837;57.148;-2.144;2023-07-08T06:43:42;5.60;;;3.83;;
27365;SDS011;14837;57.148;-2.144;2023-07-08T06:46:09;6.15;;;3.35;;
27365;SDS011;14837;57.148;-2.144;2023-07-08T06:48:35;4.47;;;3.13;;
27365;SDS011;14837;57.148;-2.144;2023-07-08T06:51:02;4.68;;;3.10;;
27365;SDS011;14837;57.148;-2.144;2023-07-08T06:53:28;4.10;;;3.03;;
27365;SDS011;14837;57.148;-2.144;2023-07-08T06:55:55;7.75;;;3.58;;
27365;SDS011;14837;57.148;-2.144;2023-07-08T06:58:22;4.97;;;3.35;;
27365;SDS011;14837;57.148;-2.144;2023-07-08T07:00:48;6.10;;;3.22;;
27365;SDS011;14837;57.148;-2.144;2023-07-08T07:03:15;6.70;;;2.88;;
27365;SDS011;14837;57.148;-2.144;2023-07-08T07:05:42;5.97;;;3.40;;
27365;SDS011;14837;57.148;-2.144;2023-07-08T07:08:09;5.03;;;3.22;;
27365;SDS011;14837;57.148;-2.144;2023-07-08T07:10:36;7.63;;;3.20;;
27365;SDS011;14837;57.148;-2.144;2023-07-08T07:13:03;4.78;;;2.90;;
27365;SDS011;14837;57.148;-2.144;2023-07-08T07:15:29;3.28;;;2.85;;
27365;SDS011;14837;57.148;-2.144;2023-07-08T07:17:56;5.18;;;2.70;;
27365;SDS011;14837;57.148;-2.144;2023-07-08T07:20:24;4.65;;;3.10;;
27365;SDS011;14837;57.148;-2.144;2023-07-08T07:22:51;6.07;;;3.47;;
27365;SDS011;14837;57.148;-2.144;2023-07-08T07:25:18;4.97;;;3.25;;
27365;SDS011;14837;57.148;-2.144;2023-07-08T07:27:45;3.63;;;2.63;;
27365;SDS011;14837;57.148;-2.144;2023-07-08T07:30:11;7.03;;;3.13;;
27365;SDS011;14837;57.148;-2.144;2023-07-08T07:32:42;6.53;;;2.88;;
27365;SDS011;14837;57.148;-2.144;2023-07-08T07:35:12;4.00;;;2.60;;
27365;SDS011;14837;57.148;-2.144;2023-07-08T07:37:43;2.83;;;2.15;;
27365;SDS011;14837;57.148;-2.144;2023-07-08T07:40:10;7.50;;;3.40;;
27365;SDS011;14837;57.148;-2.144;2023-07-08T07:42:41;5.78;;;3.03;;
27365;SDS011;14837;57.148;-2.144;2023-07-08T07:45:08;4.28;;;3.13;;
27365;SDS011;14837;57.148;-2.144;2023-07-08T07:47:35;5.40;;;2.90;;
27365;SDS011;14837;57.148;-2.144;2023-07-08T07:50:05;4.45;;;2.85;;
27365;SDS011;14837;57.148;-2.144;2023-07-08T07:52:33;4.93;;;2.92;;
27365;SDS011;14837;57.148;-2.144;2023-07-08T07:54:59;4.72;;;2.95;;
27365;SDS011;14837;57.148;-2.144;2023-07-08T07:57:26;5.88;;;3.28;;
27365;SDS011;14837;57.148;-2.144;2023-07-08T07:59:52;7.43;;;3.22;;
27365;SDS011;14837;57.148;-2.144;2023-07-08T08:02:19;6.65;;;3.00;;
27365;SDS011;14837;57.148;-2.144;2023-07-08T08:04:46;5.35;;;3.20;;
27365;SDS011;14837;57.148;-2.144;2023-07-08T08:07:12;8.70;;;3.40;;
27365;SDS011;14837;57.148;-2.144;2023-07-08T08:09:39;5.75;;;3.92;;
27365;SDS011;14837;57.148;-2.144;2023-07-08T08:12:07;3.85;;;2.85;;
27365;SDS011;14837;57.148;-2.144;2023-07-08T08:14:34;6.18;;;3.47;;
27365;SDS011;14837;57.148;-2.144;2023-07-08T08:17:01;6.68;;;3.83;;
27365;SDS011;14837;57.148;-2.144;2023-07-08T08:19:28;7.20;;;3.35;;
27365;SDS011;14837;57.148;-2.144;2023-07-08T08:21:55;5.13;;;3.10;;
27365;SDS011;14837;57.148;-2.144;2023-07-08T08:24:21;5.97;;;3.88;;
27365;SDS011;14837;57.148;-2.144;2023-07-08T08:26:50;5.50;;;2.97;;
27365;SDS011;14837;57.148;-2.144;2023-07-08T08:29:16;5.47;;;2.88;;
27365;SDS011;14837;57.148;-2.144;2023-07-08T08:31:43;7.53;;;3.47;;
27365;SDS011;14837;57.148;-2.144;2023-07-08T08:34:09;6.93;;;3.03;;
27365;SDS011;14837;57.148;-2.144;2023-07-08T08:36:36;6.28;;;3.20;;
27365;SDS011;14837;57.148;-2.144;2023-07-08T08:39:02;6.38;;;3.53;;
27365;SDS011;14837;57.148;-2.144;2023-07-08T08:41:30;7.35;;;4.07;;
27365;SDS011;14837;57.148;-2.144;2023-07-08T08:43:57;4.93;;;3.17;;
27365;SDS011;14837;57.148;-2.144;2023-07-08T08:49:15;5.55;;;2.95;;
27365;SDS011;14837;57.148;-2.144;2023-07-08T08:51:42;5.78;;;3.15;;
27365;SDS011;14837;57.148;-2.144;2023-07-08T08:54:09;6.90;;;3.20;;
27365;SDS011;14837;57.148;-2.144;2023-07-08T09:01:44;6.72;;;3.30;;
27365;SDS011;14837;57.148;-2.144;2023-07-08T09:04:12;4.25;;;2.92;;
27365;SDS011;14837;57.148;-2.144;2023-07-08T09:06:41;6.13;;;3.85;;
27365;SDS011;14837;57.148;-2.144;2023-07-08T09:09:52;6.28;;;3.33;;
27365;SDS011;14837;57.148;-2.144;2023-07-08T09:12:12;4.88;;;3.30;;
27365;SDS011;14837;57.148;-2.144;2023-07-08T09:14:44;3.95;;;3.30;;
27365;SDS011;14837;57.148;-2.144;2023-07-08T09:19:44;6.07;;;3.70;;
27365;SDS011;14837;57.148;-2.144;2023-07-08T09:24:41;6.47;;;3.08;;
27365;SDS011;14837;57.148;-2.144;2023-07-08T09:27:08;6.35;;;3.10;;
27365;SDS011;14837;57.148;-2.144;2023-07-08T09:29:35;5.28;;;3.25;;
27365;SDS011;14837;57.148;-2.144;2023-07-08T09:32:20;5.90;;;3.15;;
27365;SDS011;14837;57.148;-2.144;2023-07-08T09:37:21;7.20;;;3.47;;
27365;SDS011;14837;57.148;-2.144;2023-07-08T09:39:48;5.20;;;3.22;;
27365;SDS011;14837;57.148;-2.144;2023-07-08T09:42:14;7.10;;;3.47;;
27365;SDS011;14837;57.148;-2.144;2023-07-08T09:44:43;6.53;;;3.90;;
27365;SDS011;14837;57.148;-2.144;2023-07-08T09:47:20;5.57;;;3.42;;
27365;SDS011;14837;57.148;-2.144;2023-07-08T09:49:47;6.00;;;4.22;;
27365;SDS011;14837;57.148;-2.144;2023-07-08T09:52:14;7.15;;;3.10;;
27365;SDS011;14837;57.148;-2.144;2023-07-08T09:54:41;6.78;;;3.60;;
27365;SDS011;14837;57.148;-2.144;2023-07-08T09:57:20;7.57;;;3.85;;
27365;SDS011;14837;57.148;-2.144;2023-07-08T09:59:49;4.80;;;2.85;;
27365;SDS011;14837;57.148;-2.144;2023-07-08T10:04:58;6.68;;;3.80;;
27365;SDS011;14837;57.148;-2.144;2023-07-08T10:07:27;5.72;;;3.50;;
27365;SDS011;14837;57.148;-2.144;2023-07-08T10:09:54;6.60;;;3.55;;
27365;SDS011;14837;57.148;-2.144;2023-07-08T10:12:22;8.75;;;3.85;;
27365;SDS011;14837;57.148;-2.144;2023-07-08T10:14:51;6.32;;;3.72;;
27365;SDS011;14837;57.148;-2.144;2023-07-08T10:17:19;6.53;;;3.33;;
27365;SDS011;14837;57.148;-2.144;2023-07-08T10:19:46;8.77;;;3.90;;
27365;SDS011;14837;57.148;-2.144;2023-07-08T10:25:22;5.00;;;3.25;;
27365;SDS011;14837;57.148;-2.144;2023-07-08T10:35:30;4.25;;;2.83;;
27365;SDS011;14837;57.148;-2.144;2023-07-08T10:38:20;5.85;;;3.20;;
27365;SDS011;14837;57.148;-2.144;2023-07-08T10:40:50;8.43;;;3.17;;
27365;SDS011;14837;57.148;-2.144;2023-07-08T10:46:15;6.35;;;3.10;;
27365;SDS011;14837;57.148;-2.144;2023-07-08T10:48:55;6.95;;;3.42;;
27365;SDS011;14837;57.148;-2.144;2023-07-08T10:56:45;10.52;;;3.63;;
27365;SDS011;14837;57.148;-2.144;2023-07-08T11:04:33;6.00;;;3.38;;
27365;SDS011;14837;57.148;-2.144;2023-07-08T11:07:08;5.90;;;3.63;;
27365;SDS011;14837;57.148;-2.144;2023-07-08T11:15:28;5.72;;;2.80;;
27365;SDS011;14837;57.148;-2.144;2023-07-08T11:20:41;5.57;;;3.53;;
27365;SDS011;14837;57.148;-2.144;2023-07-08T11:25:58;6.88;;;3.42;;
27365;SDS011;14837;57.148;-2.144;2023-07-08T11:28:27;8.05;;;3.78;;
27365;SDS011;14837;57.148;-2.144;2023-07-08T11:30:54;5.15;;;3.28;;
27365;SDS011;14837;57.148;-2.144;2023-07-08T11:33:25;6.50;;;3.38;;
27365;SDS011;14837;57.148;-2.144;2023-07-08T11:35:55;5.47;;;3.03;;
27365;SDS011;14837;57.148;-2.144;2023-07-08T11:38:24;6.05;;;3.65;;
27365;SDS011;14837;57.148;-2.144;2023-07-08T11:40:52;4.85;;;3.28;;
27365;SDS011;14837;57.148;-2.144;2023-07-08T11:43:19;6.60;;;3.95;;
27365;SDS011;14837;57.148;-2.144;2023-07-08T11:45:46;6.93;;;3.22;;
27365;SDS011;14837;57.148;-2.144;2023-07-08T11:48:16;5.25;;;3.20;;
27365;SDS011;14837;57.148;-2.144;2023-07-08T11:50:45;6.90;;;3.25;;
27365;SDS011;14837;57.148;-2.144;2023-07-08T11:53:14;7.57;;;3.10;;
27365;SDS011;14837;57.148;-2.144;2023-07-08T11:58:24;5.60;;;3.72;;
27365;SDS011;14837;57.148;-2.144;2023-07-08T12:00:52;7.78;;;3.15;;
27365;SDS011;14837;57.148;-2.144;2023-07-08T12:03:21;8.57;;;3.83;;
27365;SDS011;14837;57.148;-2.144;2023-07-08T12:05:51;4.32;;;2.67;;
27365;SDS011;14837;57.148;-2.144;2023-07-08T12:08:18;7.78;;;3.22;;
27365;SDS011;14837;57.148;-2.144;2023-07-08T12:10:49;4.53;;;3.00;;
27365;SDS011;14837;57.148;-2.144;2023-07-08T12:13:17;6.15;;;3.00;;
27365;SDS011;14837;57.148;-2.144;2023-07-08T12:15:44;6.50;;;2.90;;
27365;SDS011;14837;57.148;-2.144;2023-07-08T12:18:24;5.53;;;2.92;;
27365;SDS011;14837;57.148;-2.144;2023-07-08T12:20:57;4.18;;;2.85;;
27365;SDS011;14837;57.148;-2.144;2023-07-08T12:23:26;5.15;;;2.70;;
27365;SDS011;14837;57.148;-2.144;2023-07-08T12:25:52;6.63;;;3.20;;
27365;SDS011;14837;57.148;-2.144;2023-07-08T12:28:20;4.97;;;3.35;;
27365;SDS011;14837;57.148;-2.144;2023-07-08T12:30:47;6.07;;;3.40;;
27365;SDS011;14837;57.148;-2.144;2023-07-08T12:33:30;4.63;;;2.92;;
27365;SDS011;14837;57.148;-2.144;2023-07-08T12:36:01;7.43;;;3.15;;
27365;SDS011;14837;57.148;-2.144;2023-07-08T12:38:32;8.43;;;4.07;;
27365;SDS011;14837;57.148;-2.144;2023-07-08T12:41:05;5.53;;;3.42;;
27365;SDS011;14837;57.148;-2.144;2023-07-08T12:43:34;7.60;;;3.50;;
27365;SDS011;14837;57.148;-2.144;2023-07-08T12:46:01;7.80;;;4.35;;
27365;SDS011;14837;57.148;-2.144;2023-07-08T12:48:33;6.97;;;2.88;;
27365;SDS011;14837;57.148;-2.144;2023-07-08T12:51:00;7.15;;;2.72;;
27365;SDS011;14837;57.148;-2.144;2023-07-08T12:53:27;7.50;;;2.80;;
27365;SDS011;14837;57.148;-2.144;2023-07-08T12:55:54;5.40;;;2.70;;
27365;SDS011;14837;57.148;-2.144;2023-07-08T12:58:28;6.07;;;3.35;;
27365;SDS011;14837;57.148;-2.144;2023-07-08T13:00:55;6.03;;;3.05;;
27365;SDS011;14837;57.148;-2.144;2023-07-08T13:03:24;6.20;;;3.45;;
27365;SDS011;14837;57.148;-2.144;2023-07-08T13:05:52;6.25;;;3.58;;
27365;SDS011;14837;57.148;-2.144;2023-07-08T13:08:20;5.90;;;3.35;;
27365;SDS011;14837;57.148;-2.144;2023-07-08T13:10:49;5.88;;;3.03;;
27365;SDS011;14837;57.148;-2.144;2023-07-08T13:13:21;7.18;;;3.47;;
27365;SDS011;14837;57.148;-2.144;2023-07-08T13:15:48;5.68;;;3.65;;
27365;SDS011;14837;57.148;-2.144;2023-07-08T13:18:16;6.05;;;3.15;;
27365;SDS011;14837;57.148;-2.144;2023-07-08T13:20:44;5.80;;;3.28;;
27365;SDS011;14837;57.148;-2.144;2023-07-08T13:23:13;7.57;;;3.55;;
27365;SDS011;14837;57.148;-2.144;2023-07-08T13:25:40;5.45;;;3.60;;
27365;SDS011;14837;57.148;-2.144;2023-07-08T13:33:19;3.60;;;2.67;;
27365;SDS011;14837;57.148;-2.144;2023-07-08T13:35:46;5.90;;;2.65;;
27365;SDS011;14837;57.148;-2.144;2023-07-08T13:38:17;5.60;;;3.30;;
27365;SDS011;14837;57.148;-2.144;2023-07-08T13:40:45;6.10;;;3.10;;
27365;SDS011;14837;57.148;-2.144;2023-07-08T13:43:13;6.85;;;3.45;;
27365;SDS011;14837;57.148;-2.144;2023-07-08T13:45:43;4.70;;;2.92;;
27365;SDS011;14837;57.148;-2.144;2023-07-08T13:48:27;8.38;;;4.53;;
27365;SDS011;14837;57.148;-2.144;2023-07-08T13:53:33;6.60;;;3.35;;
27365;SDS011;14837;57.148;-2.144;2023-07-08T13:56:12;5.70;;;3.67;;
27365;SDS011;14837;57.148;-2.144;2023-07-08T13:58:41;4.93;;;3.20;;
27365;SDS011;14837;57.148;-2.144;2023-07-08T14:01:12;7.32;;;3.83;;
27365;SDS011;14837;57.148;-2.144;2023-07-08T14:03:41;4.68;;;2.60;;
27365;SDS011;14837;57.148;-2.144;2023-07-08T14:06:17;6.72;;;3.72;;
27365;SDS011;14837;57.148;-2.144;2023-07-08T14:08:44;7.70;;;3.72;;
27365;SDS011;14837;57.148;-2.144;2023-07-08T14:11:11;7.78;;;4.22;;
27365;SDS011;14837;57.148;-2.144;2023-07-08T14:13:37;5.65;;;3.47;;
27365;SDS011;14837;57.148;-2.144;2023-07-08T14:16:08;6.07;;;3.60;;
27365;SDS011;14837;57.148;-2.144;2023-07-08T14:18:36;5.88;;;2.90;;
27365;SDS011;14837;57.148;-2.144;2023-07-08T14:21:02;5.70;;;3.38;;
27365;SDS011;14837;57.148;-2.144;2023-07-08T14:23:29;4.85;;;3.17;;
27365;SDS011;14837;57.148;-2.144;2023-07-08T14:25:56;4.75;;;3.15;;
27365;SDS011;14837;57.148;-2.144;2023-07-08T14:28:22;6.28;;;3.20;;
27365;SDS011;14837;57.148;-2.144;2023-07-08T14:30:49;6.30;;;3.53;;
27365;SDS011;14837;57.148;-2.144;2023-07-08T14:33:15;5.70;;;3.47;;
27365;SDS011;14837;57.148;-2.144;2023-07-08T14:35:42;7.30;;;3.17;;
27365;SDS011;14837;57.148;-2.144;2023-07-08T14:38:12;4.95;;;3.13;;
27365;SDS011;14837;57.148;-2.144;2023-07-08T14:40:40;5.95;;;3.60;;
27365;SDS011;14837;57.148;-2.144;2023-07-08T14:43:10;7.72;;;3.83;;
27365;SDS011;14837;57.148;-2.144;2023-07-08T14:45:40;7.65;;;3.92;;
27365;SDS011;14837;57.148;-2.144;2023-07-08T14:48:10;5.22;;;3.17;;
27365;SDS011;14837;57.148;-2.144;2023-07-08T14:50:37;5.80;;;3.33;;
27365;SDS011;14837;57.148;-2.144;2023-07-08T14:53:04;5.75;;;3.45;;
27365;SDS011;14837;57.148;-2.144;2023-07-08T14:55:30;5.72;;;3.95;;
27365;SDS011;14837;57.148;-2.144;2023-07-08T14:57:57;5.32;;;3.70;;
27365;SDS011;14837;57.148;-2.144;2023-07-08T15:00:24;5.30;;;3.78;;
27365;SDS011;14837;57.148;-2.144;2023-07-08T15:02:51;7.72;;;4.05;;
27365;SDS011;14837;57.148;-2.144;2023-07-08T15:05:22;10.68;;;5.25;;
27365;SDS011;14837;57.148;-2.144;2023-07-08T15:07:51;7.60;;;4.13;;
27365;SDS011;14837;57.148;-2.144;2023-07-08T15:10:18;5.88;;;3.85;;
27365;SDS011;14837;57.148;-2.144;2023-07-08T15:12:46;6.53;;;3.50;;
27365;SDS011;14837;57.148;-2.144;2023-07-08T15:15:18;6.30;;;3.42;;
27365;SDS011;14837;57.148;-2.144;2023-07-08T15:17:48;3.97;;;3.58;;
27365;SDS011;14837;57.148;-2.144;2023-07-08T15:20:15;7.50;;;4.78;;
27365;SDS011;14837;57.148;-2.144;2023-07-08T15:22:42;6.60;;;4.13;;
27365;SDS011;14837;57.148;-2.144;2023-07-08T15:25:10;6.75;;;4.20;;
27365;SDS011;14837;57.148;-2.144;2023-07-08T15:27:37;8.82;;;5.22;;
27365;SDS011;14837;57.148;-2.144;2023-07-08T15:30:04;6.32;;;4.05;;
27365;SDS011;14837;57.148;-2.144;2023-07-08T15:32:30;5.50;;;4.28;;
27365;SDS011;14837;57.148;-2.144;2023-07-08T15:35:00;9.32;;;3.83;;
27365;SDS011;14837;57.148;-2.144;2023-07-08T15:37:26;8.23;;;5.35;;
27365;SDS011;14837;57.148;-2.144;2023-07-08T15:39:53;7.57;;;4.07;;
27365;SDS011;14837;57.148;-2.144;2023-07-08T15:42:20;6.65;;;4.18;;
27365;SDS011;14837;57.148;-2.144;2023-07-08T15:44:46;8.10;;;4.95;;